sensor_id;sensor_type;location;lat;lon;timestamp;temperature;humidity
28773;DHT22;15925;51.222;5.678;2023-04-19T00:00:44;10.80;99.90
28773;DHT22;15925;51.222;5.678;2023-04-19T00:03:10;10.90;99.90
28773;DHT22;15925;51.222;5.678;2023-04-19T00:05:36;10.90;99.90
28773;DHT22;15925;51.222;5.678;2023-04-19T00:08:06;10.90;99.90
28773;DHT22;15925;51.222;5.678;2023-04-19T00:10:32;11.00;99.90
28773;DHT22;15925;51.222;5.678;2023-04-19T00:12:58;11.00;99.90
28773;DHT22;15925;51.222;5.678;2023-04-19T00:15:23;11.00;99.90
28773;DHT22;15925;51.222;5.678;2023-04-19T00:17:49;11.00;99.90
28773;DHT22;15925;51.222;5.678;2023-04-19T00:20:15;11.10;99.90
28773;DHT22;15925;51.222;5.678;2023-04-19T00:22:41;11.10;99.90
28773;DHT22;15925;51.222;5.678;2023-04-19T00:25:07;11.10;99.90
28773;DHT22;15925;51.222;5.678;2023-04-19T00:27:33;11.10;99.90
28773;DHT22;15925;51.222;5.678;2023-04-19T00:29:59;11.10;99.90
28773;DHT22;15925;51.222;5.678;2023-04-19T00:32:25;11.10;99.90
28773;DHT22;15925;51.222;5.678;2023-04-19T00:34:51;11.20;99.90
28773;DHT22;15925;51.222;5.678;2023-04-19T00:37:17;11.10;99.90
28773;DHT22;15925;51.222;5.678;2023-04-19T00:39:42;11.20;99.90
28773;DHT22;15925;51.222;5.678;2023-04-19T00:42:08;11.20;99.90
28773;DHT22;15925;51.222;5.678;2023-04-19T00:44:34;11.20;99.90
28773;DHT22;15925;51.222;5.678;2023-04-19T00:47:00;11.20;99.90
28773;DHT22;15925;51.222;5.678;2023-04-19T00:49:26;11.20;99.90
28773;DHT22;15925;51.222;5.678;2023-04-19T00:51:52;11.20;99.90
28773;DHT22;15925;51.222;5.678;2023-04-19T00:54:19;11.20;99.90
28773;DHT22;15925;51.222;5.678;2023-04-19T00:56:48;11.20;99.90
28773;DHT22;15925;51.222;5.678;2023-04-19T00:59:17;11.30;99.90
28773;DHT22;15925;51.222;5.678;2023-04-19T01:01:42;11.30;99.90
28773;DHT22;15925;51.222;5.678;2023-04-19T01:04:08;11.30;99.90
28773;DHT22;15925;51.222;5.678;2023-04-19T01:06:35;11.30;99.90
28773;DHT22;15925;51.222;5.678;2023-04-19T01:09:01;11.30;99.90
28773;DHT22;15925;51.222;5.678;2023-04-19T01:11:28;11.30;99.90
28773;DHT22;15925;51.222;5.678;2023-04-19T01:13:57;11.30;99.90
28773;DHT22;15925;51.222;5.678;2023-04-19T01:16:26;11.30;99.90
28773;DHT22;15925;51.222;5.678;2023-04-19T01:18:53;11.40;99.90
28773;DHT22;15925;51.222;5.678;2023-04-19T01:21:19;11.30;99.90
28773;DHT22;15925;51.222;5.678;2023-04-19T01:23:47;11.30;99.90
28773;DHT22;15925;51.222;5.678;2023-04-19T01:26:14;11.40;99.90
28773;DHT22;15925;51.222;5.678;2023-04-19T01:28:40;11.40;99.90
28773;DHT22;15925;51.222;5.678;2023-04-19T01:31:08;11.40;99.90
28773;DHT22;15925;51.222;5.678;2023-04-19T01:33:35;11.40;99.90
28773;DHT22;15925;51.222;5.678;2023-04-19T01:36:01;11.40;99.90
28773;DHT22;15925;51.222;5.678;2023-04-19T01:38:27;11.40;99.90
28773;DHT22;15925;51.222;5.678;2023-04-19T01:40:53;11.40;99.90
28773;DHT22;15925;51.222;5.678;2023-04-19T01:43:21;11.40;99.90
28773;DHT22;15925;51.222;5.678;2023-04-19T01:45:47;11.40;99.90
28773;DHT22;15925;51.222;5.678;2023-04-19T01:48:12;11.50;99.90
28773;DHT22;15925;51.222;5.678;2023-04-19T01:50:38;11.40;99.90
28773;DHT22;15925;51.222;5.678;2023-04-19T01:53:04;11.40;99.90
28773;DHT22;15925;51.222;5.678;2023-04-19T01:55:31;11.40;99.90
28773;DHT22;15925;51.222;5.678;2023-04-19T01:57:57;11.40;99.90
28773;DHT22;15925;51.222;5.678;2023-04-19T02:00:23;11.40;99.90
28773;DHT22;15925;51.222;5.678;2023-04-19T02:02:48;11.40;99.90
28773;DHT22;15925;51.222;5.678;2023-04-19T02:05:14;11.50;99.90
28773;DHT22;15925;51.222;5.678;2023-04-19T02:07:40;11.50;99.90
28773;DHT22;15925;51.222;5.678;2023-04-19T02:10:09;11.40;99.90
28773;DHT22;15925;51.222;5.678;2023-04-19T02:12:35;11.50;99.90
28773;DHT22;15925;51.222;5.678;2023-04-19T02:15:02;11.50;99.90
28773;DHT22;15925;51.222;5.678;2023-04-19T02:17:33;11.50;99.90
28773;DHT22;15925;51.222;5.678;2023-04-19T02:20:00;11.50;99.90
28773;DHT22;15925;51.222;5.678;2023-04-19T02:22:26;11.40;99.90
28773;DHT22;15925;51.222;5.678;2023-04-19T02:24:52;11.40;99.90
28773;DHT22;15925;51.222;5.678;2023-04-19T02:27:18;11.40;99.90
28773;DHT22;15925;51.222;5.678;2023-04-19T02:29:44;11.40;99.90
28773;DHT22;15925;51.222;5.678;2023-04-19T02:32:12;11.50;99.90
28773;DHT22;15925;51.222;5.678;2023-04-19T02:34:38;11.40;99.90
28773;DHT22;15925;51.222;5.678;2023-04-19T02:37:04;11.50;99.90
28773;DHT22;15925;51.222;5.678;2023-04-19T02:39:30;11.40;99.90
28773;DHT22;15925;51.222;5.678;2023-04-19T02:41:56;11.40;99.90
28773;DHT22;15925;51.222;5.678;2023-04-19T02:44:22;11.40;99.90
28773;DHT22;15925;51.222;5.678;2023-04-19T02:46:51;11.40;99.90
28773;DHT22;15925;51.222;5.678;2023-04-19T02:49:18;11.40;99.90
28773;DHT22;15925;51.222;5.678;2023-04-19T02:51:44;11.30;99.90
28773;DHT22;15925;51.222;5.678;2023-04-19T02:54:12;11.40;99.90
28773;DHT22;15925;51.222;5.678;2023-04-19T02:56:39;11.40;99.90
28773;DHT22;15925;51.222;5.678;2023-04-19T02:59:05;11.30;99.90
28773;DHT22;15925;51.222;5.678;2023-04-19T03:01:32;11.30;99.90
28773;DHT22;15925;51.222;5.678;2023-04-19T03:04:00;11.30;99.90
28773;DHT22;15925;51.222;5.678;2023-04-19T03:06:26;11.20;99.90
28773;DHT22;15925;51.222;5.678;2023-04-19T03:08:51;11.20;99.90
28773;DHT22;15925;51.222;5.678;2023-04-19T03:11:18;11.20;99.90
28773;DHT22;15925;51.222;5.678;2023-04-19T03:13:45;11.10;99.90
28773;DHT22;15925;51.222;5.678;2023-04-19T03:16:12;11.10;99.90
28773;DHT22;15925;51.222;5.678;2023-04-19T03:18:38;11.10;99.90
28773;DHT22;15925;51.222;5.678;2023-04-19T03:21:05;11.00;99.90
28773;DHT22;15925;51.222;5.678;2023-04-19T03:23:44;10.90;99.90
28773;DHT22;15925;51.222;5.678;2023-04-19T03:26:10;10.90;99.90
28773;DHT22;15925;51.222;5.678;2023-04-19T03:28:46;10.90;99.90
28773;DHT22;15925;51.222;5.678;2023-04-19T03:31:13;10.80;99.90
28773;DHT22;15925;51.222;5.678;2023-04-19T03:33:39;10.80;99.90
28773;DHT22;15925;51.222;5.678;2023-04-19T03:36:05;10.80;99.90
28773;DHT22;15925;51.222;5.678;2023-04-19T03:38:32;10.80;99.90
28773;DHT22;15925;51.222;5.678;2023-04-19T03:40:59;10.80;99.90
28773;DHT22;15925;51.222;5.678;2023-04-19T03:43:28;10.80;99.90
28773;DHT22;15925;51.222;5.678;2023-04-19T03:45:54;10.80;99.90
28773;DHT22;15925;51.222;5.678;2023-04-19T03:48:20;10.70;99.90
28773;DHT22;15925;51.222;5.678;2023-04-19T03:50:46;10.70;99.90
28773;DHT22;15925;51.222;5.678;2023-04-19T03:53:15;10.70;99.90
28773;DHT22;15925;51.222;5.678;2023-04-19T03:55:40;10.70;99.90
28773;DHT22;15925;51.222;5.678;2023-04-19T03:58:06;10.60;99.90
28773;DHT22;15925;51.222;5.678;2023-04-19T04:00:44;10.60;99.90
28773;DHT22;15925;51.222;5.678;2023-04-19T04:03:12;10.60;99.90
28773;DHT22;15925;51.222;5.678;2023-04-19T04:05:38;10.70;99.90
28773;DHT22;15925;51.222;5.678;2023-04-19T04:08:04;10.70;99.90
28773;DHT22;15925;51.222;5.678;2023-04-19T04:10:30;10.70;99.90
28773;DHT22;15925;51.222;5.678;2023-04-19T04:12:56;10.70;99.90
28773;DHT22;15925;51.222;5.678;2023-04-19T04:15:29;10.80;99.90
28773;DHT22;15925;51.222;5.678;2023-04-19T04:17:56;10.80;99.90
28773;DHT22;15925;51.222;5.678;2023-04-19T04:20:22;10.80;99.90
28773;DHT22;15925;51.222;5.678;2023-04-19T04:22:51;10.80;99.90
28773;DHT22;15925;51.222;5.678;2023-04-19T04:25:19;10.80;99.90
28773;DHT22;15925;51.222;5.678;2023-04-19T04:27:46;10.80;99.90
28773;DHT22;15925;51.222;5.678;2023-04-19T04:30:17;10.80;99.90
28773;DHT22;15925;51.222;5.678;2023-04-19T04:32:43;10.80;99.90
28773;DHT22;15925;51.222;5.678;2023-04-19T04:35:11;10.80;99.90
28773;DHT22;15925;51.222;5.678;2023-04-19T04:37:42;10.80;99.90
28773;DHT22;15925;51.222;5.678;2023-04-19T04:40:08;10.90;99.90
28773;DHT22;15925;51.222;5.678;2023-04-19T04:42:35;10.90;99.90
28773;DHT22;15925;51.222;5.678;2023-04-19T04:45:02;10.90;99.90
28773;DHT22;15925;51.222;5.678;2023-04-19T04:47:33;10.90;99.90
28773;DHT22;15925;51.222;5.678;2023-04-19T04:50:03;10.90;99.90
28773;DHT22;15925;51.222;5.678;2023-04-19T04:52:29;10.90;99.90
28773;DHT22;15925;51.222;5.678;2023-04-19T04:55:11;11.00;99.90
28773;DHT22;15925;51.222;5.678;2023-04-19T04:57:41;11.00;99.90
28773;DHT22;15925;51.222;5.678;2023-04-19T05:00:12;11.00;99.90
28773;DHT22;15925;51.222;5.678;2023-04-19T05:02:46;11.00;99.90
28773;DHT22;15925;51.222;5.678;2023-04-19T05:05:13;10.90;99.90
28773;DHT22;15925;51.222;5.678;2023-04-19T05:07:39;11.00;99.90
28773;DHT22;15925;51.222;5.678;2023-04-19T05:10:05;11.00;99.90
28773;DHT22;15925;51.222;5.678;2023-04-19T05:12:41;10.90;99.90
28773;DHT22;15925;51.222;5.678;2023-04-19T05:15:07;10.90;99.90
28773;DHT22;15925;51.222;5.678;2023-04-19T05:17:36;11.00;99.90
28773;DHT22;15925;51.222;5.678;2023-04-19T05:20:02;11.00;99.90
28773;DHT22;15925;51.222;5.678;2023-04-19T05:22:30;10.90;99.90
28773;DHT22;15925;51.222;5.678;2023-04-19T05:24:56;10.90;99.90
28773;DHT22;15925;51.222;5.678;2023-04-19T05:27:22;10.90;99.90
28773;DHT22;15925;51.222;5.678;2023-04-19T05:29:48;10.90;99.90
28773;DHT22;15925;51.222;5.678;2023-04-19T05:32:16;10.90;99.90
28773;DHT22;15925;51.222;5.678;2023-04-19T05:34:47;10.90;99.90
28773;DHT22;15925;51.222;5.678;2023-04-19T05:37:15;10.90;99.90
28773;DHT22;15925;51.222;5.678;2023-04-19T05:39:41;10.90;99.90
28773;DHT22;15925;51.222;5.678;2023-04-19T05:42:07;10.80;99.90
28773;DHT22;15925;51.222;5.678;2023-04-19T05:44:34;10.80;99.90
28773;DHT22;15925;51.222;5.678;2023-04-19T05:47:00;10.80;99.90
28773;DHT22;15925;51.222;5.678;2023-04-19T05:49:55;10.80;99.90
28773;DHT22;15925;51.222;5.678;2023-04-19T05:52:28;10.80;99.90
28773;DHT22;15925;51.222;5.678;2023-04-19T05:54:57;10.80;99.90
28773;DHT22;15925;51.222;5.678;2023-04-19T05:57:23;10.80;99.90
28773;DHT22;15925;51.222;5.678;2023-04-19T05:59:49;10.90;99.90
28773;DHT22;15925;51.222;5.678;2023-04-19T06:02:19;10.90;99.90
28773;DHT22;15925;51.222;5.678;2023-04-19T06:04:44;10.90;99.90
28773;DHT22;15925;51.222;5.678;2023-04-19T06:07:10;10.90;99.90
28773;DHT22;15925;51.222;5.678;2023-04-19T06:09:38;10.90;99.90
28773;DHT22;15925;51.222;5.678;2023-04-19T06:12:06;10.80;99.90
28773;DHT22;15925;51.222;5.678;2023-04-19T06:14:31;10.90;99.90
28773;DHT22;15925;51.222;5.678;2023-04-19T06:16:57;10.90;99.90
28773;DHT22;15925;51.222;5.678;2023-04-19T06:19:24;10.90;99.90
28773;DHT22;15925;51.222;5.678;2023-04-19T06:21:49;10.90;99.90
28773;DHT22;15925;51.222;5.678;2023-04-19T06:24:15;10.90;99.90
28773;DHT22;15925;51.222;5.678;2023-04-19T06:26:41;11.00;99.90
28773;DHT22;15925;51.222;5.678;2023-04-19T06:29:07;11.00;99.90
28773;DHT22;15925;51.222;5.678;2023-04-19T06:31:33;11.00;99.90
28773;DHT22;15925;51.222;5.678;2023-04-19T06:33:59;11.00;99.90
28773;DHT22;15925;51.222;5.678;2023-04-19T06:36:25;11.10;99.90
28773;DHT22;15925;51.222;5.678;2023-04-19T06:38:51;11.10;99.90
28773;DHT22;15925;51.222;5.678;2023-04-19T06:41:17;11.20;99.90
28773;DHT22;15925;51.222;5.678;2023-04-19T06:43:42;11.20;99.90
28773;DHT22;15925;51.222;5.678;2023-04-19T06:46:09;11.30;99.90
28773;DHT22;15925;51.222;5.678;2023-04-19T06:48:35;11.30;99.90
28773;DHT22;15925;51.222;5.678;2023-04-19T06:51:01;11.30;99.90
28773;DHT22;15925;51.222;5.678;2023-04-19T06:53:27;11.30;99.90
28773;DHT22;15925;51.222;5.678;2023-04-19T06:56:00;11.30;99.90
28773;DHT22;15925;51.222;5.678;2023-04-19T06:58:26;11.40;99.90
28773;DHT22;15925;51.222;5.678;2023-04-19T07:00:53;11.50;99.90
28773;DHT22;15925;51.222;5.678;2023-04-19T07:03:19;11.60;99.90
28773;DHT22;15925;51.222;5.678;2023-04-19T07:05:45;11.60;99.90
28773;DHT22;15925;51.222;5.678;2023-04-19T07:08:11;11.60;99.90
28773;DHT22;15925;51.222;5.678;2023-04-19T07:10:36;11.70;99.90
28773;DHT22;15925;51.222;5.678;2023-04-19T07:13:02;11.90;99.90
28773;DHT22;15925;51.222;5.678;2023-04-19T07:15:28;11.70;99.90
28773;DHT22;15925;51.222;5.678;2023-04-19T07:17:54;11.80;99.90
28773;DHT22;15925;51.222;5.678;2023-04-19T07:20:20;11.70;99.90
28773;DHT22;15925;51.222;5.678;2023-04-19T07:22:46;11.70;99.90
28773;DHT22;15925;51.222;5.678;2023-04-19T07:25:12;11.80;99.90
28773;DHT22;15925;51.222;5.678;2023-04-19T07:27:38;11.90;99.90
28773;DHT22;15925;51.222;5.678;2023-04-19T07:30:05;12.00;99.90
28773;DHT22;15925;51.222;5.678;2023-04-19T07:32:31;12.00;99.90
28773;DHT22;15925;51.222;5.678;2023-04-19T07:34:57;12.00;99.90
28773;DHT22;15925;51.222;5.678;2023-04-19T07:37:22;12.10;99.90
28773;DHT22;15925;51.222;5.678;2023-04-19T07:39:48;12.10;99.90
28773;DHT22;15925;51.222;5.678;2023-04-19T07:42:14;12.10;99.90
28773;DHT22;15925;51.222;5.678;2023-04-19T07:44:40;12.00;99.90
28773;DHT22;15925;51.222;5.678;2023-04-19T07:47:05;12.00;99.90
28773;DHT22;15925;51.222;5.678;2023-04-19T07:49:31;12.00;99.90
28773;DHT22;15925;51.222;5.678;2023-04-19T07:51:59;12.10;99.90
28773;DHT22;15925;51.222;5.678;2023-04-19T07:54:26;12.10;99.90
28773;DHT22;15925;51.222;5.678;2023-04-19T07:56:52;12.20;99.90
28773;DHT22;15925;51.222;5.678;2023-04-19T07:59:18;12.20;99.90
28773;DHT22;15925;51.222;5.678;2023-04-19T08:01:44;12.30;99.90
28773;DHT22;15925;51.222;5.678;2023-04-19T08:04:09;12.30;99.90
28773;DHT22;15925;51.222;5.678;2023-04-19T08:06:36;12.30;99.90
28773;DHT22;15925;51.222;5.678;2023-04-19T08:09:03;12.50;99.90
28773;DHT22;15925;51.222;5.678;2023-04-19T08:11:30;12.60;99.90
28773;DHT22;15925;51.222;5.678;2023-04-19T08:13:56;12.70;99.90
28773;DHT22;15925;51.222;5.678;2023-04-19T08:16:22;12.60;99.90
28773;DHT22;15925;51.222;5.678;2023-04-19T08:18:47;12.60;99.90
28773;DHT22;15925;51.222;5.678;2023-04-19T08:21:16;12.70;99.90
28773;DHT22;15925;51.222;5.678;2023-04-19T08:23:42;12.80;99.90
28773;DHT22;15925;51.222;5.678;2023-04-19T08:26:08;12.90;99.90
28773;DHT22;15925;51.222;5.678;2023-04-19T08:28:34;13.00;99.90
28773;DHT22;15925;51.222;5.678;2023-04-19T08:30:59;13.10;99.90
28773;DHT22;15925;51.222;5.678;2023-04-19T08:33:27;13.20;99.90
28773;DHT22;15925;51.222;5.678;2023-04-19T08:35:52;13.30;99.90
28773;DHT22;15925;51.222;5.678;2023-04-19T08:38:18;13.40;99.90
28773;DHT22;15925;51.222;5.678;2023-04-19T08:40:51;13.50;99.90
28773;DHT22;15925;51.222;5.678;2023-04-19T08:43:18;13.30;99.90
28773;DHT22;15925;51.222;5.678;2023-04-19T08:45:49;13.30;99.90
28773;DHT22;15925;51.222;5.678;2023-04-19T08:48:16;13.30;99.90
28773;DHT22;15925;51.222;5.678;2023-04-19T08:50:42;13.40;99.90
28773;DHT22;15925;51.222;5.678;2023-04-19T08:53:11;13.30;99.90
28773;DHT22;15925;51.222;5.678;2023-04-19T08:55:39;13.40;99.90
28773;DHT22;15925;51.222;5.678;2023-04-19T08:58:05;13.50;99.90
28773;DHT22;15925;51.222;5.678;2023-04-19T09:00:37;13.70;99.90
28773;DHT22;15925;51.222;5.678;2023-04-19T09:03:06;13.80;99.90
28773;DHT22;15925;51.222;5.678;2023-04-19T09:05:33;14.00;99.90
28773;DHT22;15925;51.222;5.678;2023-04-19T09:08:22;14.10;99.90
28773;DHT22;15925;51.222;5.678;2023-04-19T09:10:57;14.00;99.90
28773;DHT22;15925;51.222;5.678;2023-04-19T09:13:24;14.00;99.90
28773;DHT22;15925;51.222;5.678;2023-04-19T09:15:50;14.10;99.90
28773;DHT22;15925;51.222;5.678;2023-04-19T09:18:16;14.20;99.90
28773;DHT22;15925;51.222;5.678;2023-04-19T09:20:44;14.30;99.90
28773;DHT22;15925;51.222;5.678;2023-04-19T09:23:15;14.30;99.90
28773;DHT22;15925;51.222;5.678;2023-04-19T09:26:00;14.30;99.90
28773;DHT22;15925;51.222;5.678;2023-04-19T09:28:27;14.40;99.90
28773;DHT22;15925;51.222;5.678;2023-04-19T09:30:56;14.30;99.90
28773;DHT22;15925;51.222;5.678;2023-04-19T09:33:32;14.40;99.90
28773;DHT22;15925;51.222;5.678;2023-04-19T09:35:59;14.20;99.90
28773;DHT22;15925;51.222;5.678;2023-04-19T09:38:25;14.50;99.90
28773;DHT22;15925;51.222;5.678;2023-04-19T09:40:52;14.40;99.90
28773;DHT22;15925;51.222;5.678;2023-04-19T09:43:23;14.50;99.90
28773;DHT22;15925;51.222;5.678;2023-04-19T09:45:50;14.50;99.90
28773;DHT22;15925;51.222;5.678;2023-04-19T09:48:16;14.60;99.90
28773;DHT22;15925;51.222;5.678;2023-04-19T09:51:14;14.50;99.90
28773;DHT22;15925;51.222;5.678;2023-04-19T09:53:40;14.60;99.90
28773;DHT22;15925;51.222;5.678;2023-04-19T09:56:07;14.70;99.90
28773;DHT22;15925;51.222;5.678;2023-04-19T09:58:34;14.90;99.90
28773;DHT22;15925;51.222;5.678;2023-04-19T10:01:00;14.90;99.90
28773;DHT22;15925;51.222;5.678;2023-04-19T10:03:28;14.90;99.90
28773;DHT22;15925;51.222;5.678;2023-04-19T10:05:54;15.10;99.90
28773;DHT22;15925;51.222;5.678;2023-04-19T10:08:21;15.00;99.90
28773;DHT22;15925;51.222;5.678;2023-04-19T10:10:47;15.00;99.90
28773;DHT22;15925;51.222;5.678;2023-04-19T10:13:20;15.30;99.90
28773;DHT22;15925;51.222;5.678;2023-04-19T10:15:48;15.30;99.90
28773;DHT22;15925;51.222;5.678;2023-04-19T10:18:14;15.40;99.90
28773;DHT22;15925;51.222;5.678;2023-04-19T10:20:54;15.50;99.90
28773;DHT22;15925;51.222;5.678;2023-04-19T10:23:23;15.20;99.90
28773;DHT22;15925;51.222;5.678;2023-04-19T10:25:54;15.30;99.90
28773;DHT22;15925;51.222;5.678;2023-04-19T10:28:20;15.20;99.90
28773;DHT22;15925;51.222;5.678;2023-04-19T10:31:03;15.10;99.90
28773;DHT22;15925;51.222;5.678;2023-04-19T10:33:36;15.20;99.90
28773;DHT22;15925;51.222;5.678;2023-04-19T10:36:03;15.10;99.90
28773;DHT22;15925;51.222;5.678;2023-04-19T10:38:39;15.20;99.90
28773;DHT22;15925;51.222;5.678;2023-04-19T10:41:07;15.20;99.90
28773;DHT22;15925;51.222;5.678;2023-04-19T10:43:37;15.20;99.90
28773;DHT22;15925;51.222;5.678;2023-04-19T10:46:08;15.40;99.90
28773;DHT22;15925;51.222;5.678;2023-04-19T10:48:36;15.50;99.90
28773;DHT22;15925;51.222;5.678;2023-04-19T10:51:14;15.40;99.90
28773;DHT22;15925;51.222;5.678;2023-04-19T10:56:21;15.20;99.90
28773;DHT22;15925;51.222;5.678;2023-04-19T11:01:49;15.10;99.90
28773;DHT22;15925;51.222;5.678;2023-04-19T11:07:09;15.70;99.90
28773;DHT22;15925;51.222;5.678;2023-04-19T11:09:39;15.60;99.90
28773;DHT22;15925;51.222;5.678;2023-04-19T11:12:14;15.70;99.90
28773;DHT22;15925;51.222;5.678;2023-04-19T11:14:45;15.80;99.60
28773;DHT22;15925;51.222;5.678;2023-04-19T11:17:19;15.80;99.00
28773;DHT22;15925;51.222;5.678;2023-04-19T11:19:56;15.90;98.90
28773;DHT22;15925;51.222;5.678;2023-04-19T11:24:51;15.80;98.60
28773;DHT22;15925;51.222;5.678;2023-04-19T11:27:17;15.90;98.60
28773;DHT22;15925;51.222;5.678;2023-04-19T11:29:42;16.00;98.30
28773;DHT22;15925;51.222;5.678;2023-04-19T11:32:08;15.80;97.50
28773;DHT22;15925;51.222;5.678;2023-04-19T11:34:35;15.60;97.30
28773;DHT22;15925;51.222;5.678;2023-04-19T11:37:01;15.60;97.10
28773;DHT22;15925;51.222;5.678;2023-04-19T11:39:27;15.60;97.10
28773;DHT22;15925;51.222;5.678;2023-04-19T11:41:53;15.70;96.70
28773;DHT22;15925;51.222;5.678;2023-04-19T11:44:19;15.60;96.40
28773;DHT22;15925;51.222;5.678;2023-04-19T11:47:03;15.60;96.30
28773;DHT22;15925;51.222;5.678;2023-04-19T11:49:31;15.40;94.00
28773;DHT22;15925;51.222;5.678;2023-04-19T11:51:59;15.40;96.20
28773;DHT22;15925;51.222;5.678;2023-04-19T11:54:26;15.10;96.20
28773;DHT22;15925;51.222;5.678;2023-04-19T11:56:58;15.10;96.00
28773;DHT22;15925;51.222;5.678;2023-04-19T11:59:24;15.10;95.60
28773;DHT22;15925;51.222;5.678;2023-04-19T12:01:50;15.10;95.40
28773;DHT22;15925;51.222;5.678;2023-04-19T12:04:16;15.10;95.30
28773;DHT22;15925;51.222;5.678;2023-04-19T12:06:41;15.30;95.50
28773;DHT22;15925;51.222;5.678;2023-04-19T12:09:07;15.30;95.20
28773;DHT22;15925;51.222;5.678;2023-04-19T12:11:45;15.50;95.50
28773;DHT22;15925;51.222;5.678;2023-04-19T12:14:12;15.80;95.00
28773;DHT22;15925;51.222;5.678;2023-04-19T12:16:38;15.80;95.10
28773;DHT22;15925;51.222;5.678;2023-04-19T12:21:39;15.40;94.00
28773;DHT22;15925;51.222;5.678;2023-04-19T12:24:05;15.60;95.10
28773;DHT22;15925;51.222;5.678;2023-04-19T12:26:32;15.70;94.90
28773;DHT22;15925;51.222;5.678;2023-04-19T12:29:00;15.60;94.60
28773;DHT22;15925;51.222;5.678;2023-04-19T12:31:26;15.50;94.30
28773;DHT22;15925;51.222;5.678;2023-04-19T12:33:52;15.60;94.50
28773;DHT22;15925;51.222;5.678;2023-04-19T12:36:18;15.60;94.10
28773;DHT22;15925;51.222;5.678;2023-04-19T12:38:44;15.60;93.80
28773;DHT22;15925;51.222;5.678;2023-04-19T12:41:10;15.70;94.10
28773;DHT22;15925;51.222;5.678;2023-04-19T12:43:36;15.70;93.80
28773;DHT22;15925;51.222;5.678;2023-04-19T12:46:02;15.70;93.70
28773;DHT22;15925;51.222;5.678;2023-04-19T12:48:27;15.90;93.80
28773;DHT22;15925;51.222;5.678;2023-04-19T12:50:53;15.90;93.20
28773;DHT22;15925;51.222;5.678;2023-04-19T12:53:20;16.10;93.00
28773;DHT22;15925;51.222;5.678;2023-04-19T12:55:47;16.10;93.00
28773;DHT22;15925;51.222;5.678;2023-04-19T12:58:17;15.80;92.60
28773;DHT22;15925;51.222;5.678;2023-04-19T13:00:43;15.90;92.50
28773;DHT22;15925;51.222;5.678;2023-04-19T13:03:09;15.90;92.60
28773;DHT22;15925;51.222;5.678;2023-04-19T13:05:37;15.90;92.40
28773;DHT22;15925;51.222;5.678;2023-04-19T13:08:04;16.10;92.70
28773;DHT22;15925;51.222;5.678;2023-04-19T13:10:29;16.20;92.50
28773;DHT22;15925;51.222;5.678;2023-04-19T13:12:56;16.30;92.30
28773;DHT22;15925;51.222;5.678;2023-04-19T13:15:24;16.10;91.60
28773;DHT22;15925;51.222;5.678;2023-04-19T13:17:49;16.10;91.20
28773;DHT22;15925;51.222;5.678;2023-04-19T13:20:19;16.10;91.20
28773;DHT22;15925;51.222;5.678;2023-04-19T13:22:45;16.30;91.40
28773;DHT22;15925;51.222;5.678;2023-04-19T13:25:11;16.40;91.70
28773;DHT22;15925;51.222;5.678;2023-04-19T13:27:37;16.60;91.50
28773;DHT22;15925;51.222;5.678;2023-04-19T13:30:03;16.60;91.10
28773;DHT22;15925;51.222;5.678;2023-04-19T13:32:28;16.20;90.60
28773;DHT22;15925;51.222;5.678;2023-04-19T13:34:54;16.20;90.80
28773;DHT22;15925;51.222;5.678;2023-04-19T13:37:20;16.40;90.80
28773;DHT22;15925;51.222;5.678;2023-04-19T13:39:46;16.40;90.90
28773;DHT22;15925;51.222;5.678;2023-04-19T13:42:12;16.50;90.30
28773;DHT22;15925;51.222;5.678;2023-04-19T13:44:38;16.60;90.30
28773;DHT22;15925;51.222;5.678;2023-04-19T13:47:04;16.70;90.20
28773;DHT22;15925;51.222;5.678;2023-04-19T13:49:30;16.70;89.90
28773;DHT22;15925;51.222;5.678;2023-04-19T13:51:56;16.50;88.20
28773;DHT22;15925;51.222;5.678;2023-04-19T13:54:22;16.60;89.70
28773;DHT22;15925;51.222;5.678;2023-04-19T13:56:47;16.50;88.50
28773;DHT22;15925;51.222;5.678;2023-04-19T13:59:14;16.80;89.70
28773;DHT22;15925;51.222;5.678;2023-04-19T14:01:40;16.90;89.20
28773;DHT22;15925;51.222;5.678;2023-04-19T14:04:06;16.90;88.80
28773;DHT22;15925;51.222;5.678;2023-04-19T14:06:32;17.00;88.40
28773;DHT22;15925;51.222;5.678;2023-04-19T14:08:58;17.20;88.80
28773;DHT22;15925;51.222;5.678;2023-04-19T14:11:26;16.90;86.80
28773;DHT22;15925;51.222;5.678;2023-04-19T14:13:52;16.70;86.70
28773;DHT22;15925;51.222;5.678;2023-04-19T14:16:19;17.00;88.20
28773;DHT22;15925;51.222;5.678;2023-04-19T14:18:45;17.10;88.40
28773;DHT22;15925;51.222;5.678;2023-04-19T14:21:11;17.20;88.00
28773;DHT22;15925;51.222;5.678;2023-04-19T14:23:37;17.10;87.10
28773;DHT22;15925;51.222;5.678;2023-04-19T14:26:02;17.00;87.60
28773;DHT22;15925;51.222;5.678;2023-04-19T14:28:28;16.90;87.10
28773;DHT22;15925;51.222;5.678;2023-04-19T14:30:54;16.70;86.40
28773;DHT22;15925;51.222;5.678;2023-04-19T14:33:20;16.80;87.50
28773;DHT22;15925;51.222;5.678;2023-04-19T14:35:46;17.00;88.00
28773;DHT22;15925;51.222;5.678;2023-04-19T14:38:11;17.10;87.50
28773;DHT22;15925;51.222;5.678;2023-04-19T14:40:37;16.90;86.80
28773;DHT22;15925;51.222;5.678;2023-04-19T14:43:03;16.70;88.00
28773;DHT22;15925;51.222;5.678;2023-04-19T14:45:29;16.50;87.10
28773;DHT22;15925;51.222;5.678;2023-04-19T14:47:55;16.20;86.50
28773;DHT22;15925;51.222;5.678;2023-04-19T14:50:20;16.40;87.70
28773;DHT22;15925;51.222;5.678;2023-04-19T14:52:47;16.50;86.80
28773;DHT22;15925;51.222;5.678;2023-04-19T14:55:12;16.40;86.60
28773;DHT22;15925;51.222;5.678;2023-04-19T14:57:38;16.40;86.90
28773;DHT22;15925;51.222;5.678;2023-04-19T15:00:04;16.40;87.20
28773;DHT22;15925;51.222;5.678;2023-04-19T15:02:30;16.40;86.90
28773;DHT22;15925;51.222;5.678;2023-04-19T15:04:56;16.20;86.50
28773;DHT22;15925;51.222;5.678;2023-04-19T15:07:22;16.10;86.80
28773;DHT22;15925;51.222;5.678;2023-04-19T15:09:48;16.00;87.00
28773;DHT22;15925;51.222;5.678;2023-04-19T15:12:14;16.00;86.70
28773;DHT22;15925;51.222;5.678;2023-04-19T15:14:39;16.10;87.10
28773;DHT22;15925;51.222;5.678;2023-04-19T15:17:06;15.90;85.50
28773;DHT22;15925;51.222;5.678;2023-04-19T15:19:31;15.90;86.00
28773;DHT22;15925;51.222;5.678;2023-04-19T15:21:57;16.10;86.90
28773;DHT22;15925;51.222;5.678;2023-04-19T15:24:23;16.10;85.70
28773;DHT22;15925;51.222;5.678;2023-04-19T15:26:49;16.00;85.10
28773;DHT22;15925;51.222;5.678;2023-04-19T15:29:15;16.20;86.00
28773;DHT22;15925;51.222;5.678;2023-04-19T15:31:40;16.30;86.20
28773;DHT22;15925;51.222;5.678;2023-04-19T15:34:06;16.50;86.20
28773;DHT22;15925;51.222;5.678;2023-04-19T15:36:32;16.50;86.00
28773;DHT22;15925;51.222;5.678;2023-04-19T15:38:58;16.60;86.10
28773;DHT22;15925;51.222;5.678;2023-04-19T15:41:24;16.40;86.10
28773;DHT22;15925;51.222;5.678;2023-04-19T15:43:50;16.40;86.20